Time;durP1;ratioP1;P1;durP2;ratioP2;P2;SDS_P1;SDS_P2;PMS_P1;PMS_P2;Temp;Humidity;BMP_temperature;BMP_pressure;BME280_temperature;BME280_humidity;BME280_pressure;Samples;Min_cycle;Max_cycle;Signal;HPM_P1;HPM_P2
2023/11/22 00:01:04;;;;;;;55.85;23.13;;;6.10;99.90;;;;;;6118727;23;20415;-79
2023/11/22 00:03:52;;;;;;;49.38;23.13;;;6.10;99.90;;;;;;6100205;23;20026;-81
2023/11/22 00:06:41;;;;;;;44.40;21.95;;;6.10;99.90;;;;;;6097468;23;20078;-80
2023/11/22 00:09:28;;;;;;;42.63;22.38;;;6.10;99.90;;;;;;6118671;23;20026;-79
2023/11/22 00:12:17;;;;;;;44.03;20.80;;;6.10;99.90;;;;;;6121505;23;20030;-81
2023/11/22 00:15:06;;;;;;;46.33;21.80;;;6.10;99.90;;;;;;6120084;23;20036;-81
2023/11/22 00:17:53;;;;;;;42.17;19.90;;;6.10;99.90;;;;;;6118802;23;20026;-81
2023/11/22 00:20:43;;;;;;;50.85;20.92;;;6.10;99.90;;;;;;6118931;23;20022;-81
2023/11/22 00:23:32;;;;;;;44.83;20.25;;;6.10;99.90;;;;;;6118835;23;20093;-82
2023/11/22 00:26:20;;;;;;;39.10;19.05;;;6.00;99.90;;;;;;6100588;23;20030;-82
2023/11/22 00:29:08;;;;;;;36.60;18.65;;;6.10;99.90;;;;;;6122191;23;20293;-81
2023/11/22 00:31:55;;;;;;;37.58;18.15;;;6.10;99.90;;;;;;6121294;23;20129;-82
2023/11/22 00:34:45;;;;;;;40.88;18.17;;;6.10;99.90;;;;;;6118659;23;20038;-82
2023/11/22 00:37:32;;;;;;;37.38;18.10;;;6.10;99.90;;;;;;6118483;23;20026;-81
2023/11/22 00:40:22;;;;;;;40.22;18.58;;;6.10;99.90;;;;;;6121155;23;20030;-81
2023/11/22 00:43:09;;;;;;;34.60;14.93;;;6.10;99.90;;;;;;6098229;23;20105;-81
2023/11/22 00:45:57;;;;;;;21.90;13.32;;;6.10;99.90;;;;;;6119663;23;20029;-82
2023/11/22 00:48:44;;;;;;;20.55;11.55;;;6.00;99.90;;;;;;6121487;23;20037;-80
2023/11/22 00:51:32;;;;;;;25.70;10.30;;;6.00;99.90;;;;;;6121421;23;20030;-82
2023/11/22 00:54:22;;;;;;;18.95;9.40;;;6.00;99.90;;;;;;6120579;23;20040;-81
2023/11/22 00:57:10;;;;;;;15.68;7.95;;;5.90;99.90;;;;;;6119653;23;20100;-81
2023/11/22 00:59:57;;;;;;;12.75;8.25;;;5.80;99.90;;;;;;6117619;23;20037;-81
2023/11/22 01:02:44;;;;;;;11.73;7.20;;;5.60;99.90;;;;;;6121096;23;20097;-81
2023/11/22 01:05:32;;;;;;;11.18;7.22;;;5.40;99.90;;;;;;6119466;23;20025;-81
2023/11/22 01:08:19;;;;;;;11.30;7.70;;;5.30;99.90;;;;;;6118750;23;20336;-81
2023/11/22 01:11:08;;;;;;;13.32;8.05;;;5.10;99.90;;;;;;6120001;23;20037;-81
2023/11/22 01:13:58;;;;;;;15.00;9.30;;;5.00;99.90;;;;;;6120965;23;20313;-80
2023/11/22 01:16:45;;;;;;;19.45;11.73;;;5.00;99.90;;;;;;6119785;23;20030;-81
2023/11/22 01:19:33;;;;;;;17.40;11.05;;;4.90;99.90;;;;;;6119179;23;20030;-82
2023/11/22 01:22:20;;;;;;;15.15;10.10;;;4.70;99.90;;;;;;6119644;23;20030;-81
2023/11/22 01:25:07;;;;;;;16.95;10.10;;;4.60;99.90;;;;;;6118430;23;20112;-81
2023/11/22 01:27:54;;;;;;;15.02;10.10;;;4.60;99.90;;;;;;6119749;23;20030;-82
2023/11/22 01:30:42;;;;;;;19.13;11.57;;;4.50;99.90;;;;;;6118786;23;20022;-79
2023/11/22 01:33:29;;;;;;;20.13;11.60;;;4.50;99.90;;;;;;6120492;23;20037;-80
2023/11/22 01:36:16;;;;;;;20.75;12.40;;;4.40;99.90;;;;;;6121537;23;20136;-81
2023/11/22 01:39:04;;;;;;;24.38;14.02;;;4.40;99.90;;;;;;6099266;23;20052;-81
2023/11/22 01:41:54;;;;;;;22.40;13.43;;;4.20;99.90;;;;;;6117079;23;20026;-81
2023/11/22 01:44:41;;;;;;;23.42;13.75;;;4.10;99.90;;;;;;6117246;23;20043;-82
2023/11/22 01:47:29;;;;;;;22.15;14.10;;;4.10;99.90;;;;;;6119431;23;20022;-81
2023/11/22 01:50:17;;;;;;;23.35;13.00;;;4.00;99.90;;;;;;6120002;23;20033;-81
2023/11/22 01:53:04;;;;;;;22.25;12.60;;;4.00;99.90;;;;;;6117869;23;20026;-81
2023/11/22 01:55:51;;;;;;;21.10;13.02;;;4.00;99.90;;;;;;6118749;23;20084;-81
2023/11/22 01:58:39;;;;;;;24.45;12.90;;;3.90;99.90;;;;;;6119208;23;20133;-81
2023/11/22 02:01:27;;;;;;;21.67;13.10;;;3.90;99.90;;;;;;6116599;23;20041;-81
2023/11/22 02:04:14;;;;;;;23.02;13.60;;;3.90;99.90;;;;;;6116954;23;20030;-81
2023/11/22 02:07:07;;;;;;;27.63;14.98;;;3.80;99.90;;;;;;6118303;23;20108;-81
2023/11/22 02:09:55;;;;;;;;;;;3.80;99.90;;;;;;6117912;23;20033;-81
2023/11/22 02:12:43;;;;;;;31.90;16.38;;;3.80;99.90;;;;;;6119661;23;19928;-79
2023/11/22 02:15:30;;;;;;;30.42;18.55;;;3.70;99.90;;;;;;6101376;23;20030;-81
2023/11/22 02:18:18;;;;;;;35.05;16.80;;;3.60;99.90;;;;;;6119748;23;20034;-81
2023/11/22 02:21:06;;;;;;;33.20;17.05;;;3.60;99.90;;;;;;6117835;23;20041;-80
2023/11/22 02:23:56;;;;;;;28.30;17.00;;;3.60;99.90;;;;;;6118129;23;20053;-82
2023/11/22 02:26:45;;;;;;;28.95;16.75;;;3.50;99.90;;;;;;6098265;23;20021;-80
2023/11/22 02:29:33;;;;;;;26.98;16.52;;;3.50;99.90;;;;;;6119922;23;20040;-81
2023/11/22 02:32:20;;;;;;;25.77;15.15;;;3.40;99.90;;;;;;6129153;23;20123;-79
2023/11/22 02:35:08;;;;;;;28.58;15.55;;;3.30;99.90;;;;;;6135331;23;20041;-81
2023/11/22 02:37:55;;;;;;;23.60;14.45;;;3.30;99.90;;;;;;6139738;22;20014;-81
2023/11/22 02:40:44;;;;;;;24.33;14.82;;;3.10;99.90;;;;;;6140289;23;20029;-82
2023/11/22 02:43:32;;;;;;;23.08;14.27;;;3.00;99.90;;;;;;6127007;23;20026;-83
2023/11/22 02:46:19;;;;;;;25.83;14.23;;;3.00;99.90;;;;;;6121570;23;20529;-81
2023/11/22 02:49:09;;;;;;;22.52;13.52;;;2.90;99.90;;;;;;6119710;23;20097;-80
2023/11/22 02:51:57;;;;;;;22.33;12.98;;;2.90;99.90;;;;;;6120415;23;20030;-81
2023/11/22 02:54:47;;;;;;;25.63;13.85;;;2.80;99.90;;;;;;6119168;23;20065;-81
2023/11/22 02:57:35;;;;;;;24.17;13.32;;;2.80;99.90;;;;;;6120112;23;20044;-81
2023/11/22 03:00:22;;;;;;;22.35;13.43;;;2.80;99.90;;;;;;6120774;23;20030;-82
2023/11/22 03:03:12;;;;;;;29.90;13.98;;;2.80;99.90;;;;;;6119791;23;20026;-82
2023/11/22 03:06:00;;;;;;;22.35;13.75;;;2.60;99.90;;;;;;6100129;23;20113;-82
2023/11/22 03:08:48;;;;;;;22.52;14.07;;;2.60;99.90;;;;;;6119980;23;20324;-82
2023/11/22 03:11:40;;;;;;;25.17;14.75;;;2.60;99.90;;;;;;6120366;23;20037;-81
2023/11/22 03:14:29;;;;;;;27.77;14.93;;;2.50;99.90;;;;;;6119350;23;20108;-82
2023/11/22 03:17:19;;;;;;;22.92;13.00;;;2.50;99.90;;;;;;6119419;23;20232;-82
2023/11/22 03:20:10;;;;;;;22.13;13.20;;;2.50;99.90;;;;;;6119128;23;20030;-82
2023/11/22 03:22:58;;;;;;;22.30;13.05;;;2.50;99.90;;;;;;6120037;23;20022;-82
2023/11/22 03:25:45;;;;;;;21.83;14.13;;;2.40;99.90;;;;;;6120238;23;20356;-82
2023/11/22 03:28:35;;;;;;;23.95;12.98;;;2.30;99.90;;;;;;6119774;23;20026;-82
2023/11/22 03:31:24;;;;;;;21.70;12.90;;;2.30;99.90;;;;;;6120186;23;20030;-81
2023/11/22 03:34:11;;;;;;;22.00;13.48;;;2.30;99.90;;;;;;6119902;23;20312;-79
2023/11/22 03:36:59;;;;;;;20.65;11.88;;;2.30;99.90;;;;;;6100315;23;20037;-82
2023/11/22 03:39:48;;;;;;;19.40;13.20;;;2.20;99.90;;;;;;6119507;23;20057;-83
2023/11/22 03:42:37;;;;;;;19.42;12.48;;;2.20;99.90;;;;;;6099141;23;20449;-81
2023/11/22 03:45:24;;;;;;;20.00;12.50;;;2.20;99.90;;;;;;6120862;23;20524;-80
2023/11/22 03:48:12;;;;;;;20.35;12.90;;;2.20;99.90;;;;;;6100809;23;20037;-82
2023/11/22 03:50:59;;;;;;;21.17;13.52;;;2.20;99.90;;;;;;6131414;23;20060;-82
2023/11/22 03:53:46;;;;;;;25.00;13.52;;;2.20;99.90;;;;;;6119969;23;20026;-82
2023/11/22 03:56:33;;;;;;;23.45;14.10;;;2.10;99.90;;;;;;6098426;23;20041;-82
2023/11/22 03:59:21;;;;;;;26.67;13.43;;;2.20;99.90;;;;;;6120410;23;20041;-82
2023/11/22 04:02:08;;;;;;;24.17;13.88;;;2.20;99.90;;;;;;6102983;23;20037;-82
2023/11/22 04:04:55;;;;;;;24.75;13.23;;;2.20;99.90;;;;;;6124191;23;20143;-82
2023/11/22 04:07:43;;;;;;;23.08;13.82;;;2.10;99.90;;;;;;6102811;23;20026;-83
2023/11/22 04:10:30;;;;;;;23.75;14.00;;;2.10;99.90;;;;;;6120301;23;20025;-82
2023/11/22 04:13:18;;;;;;;23.75;14.25;;;2.00;99.90;;;;;;6120078;23;20025;-82
2023/11/22 04:16:08;;;;;;;24.45;15.32;;;2.10;99.90;;;;;;6119254;23;20022;-82
2023/11/22 04:18:56;;;;;;;23.05;14.13;;;2.10;99.90;;;;;;6119663;23;20087;-82
2023/11/22 04:21:44;;;;;;;28.80;14.45;;;2.00;99.90;;;;;;6119740;23;20022;-81
2023/11/22 04:24:31;;;;;;;24.63;14.43;;;2.00;99.90;;;;;;6121445;23;20026;-82
2023/11/22 04:27:19;;;;;;;24.58;14.40;;;2.00;99.90;;;;;;6121112;23;20095;-82
2023/11/22 04:30:17;;;;;;;26.20;14.02;;;2.00;99.90;;;;;;6119126;23;20033;-81
2023/11/22 04:33:06;;;;;;;26.75;14.77;;;2.00;99.90;;;;;;6118868;23;20026;-82
2023/11/22 04:35:54;;;;;;;27.73;15.52;;;2.00;99.90;;;;;;6097638;23;20265;-81
2023/11/22 04:38:44;;;;;;;23.88;14.50;;;2.00;99.90;;;;;;6120475;23;20464;-82
2023/11/22 04:41:31;;;;;;;24.90;15.20;;;2.00;99.90;;;;;;6118431;23;20534;-81
2023/11/22 04:44:19;;;;;;;23.77;14.70;;;2.00;99.90;;;;;;6118682;23;20306;-82
2023/11/22 04:47:06;;;;;;;29.85;16.35;;;2.10;99.90;;;;;;6119643;23;20029;-83
2023/11/22 04:49:53;;;;;;;26.77;14.10;;;2.00;99.90;;;;;;6120330;23;20111;-82
2023/11/22 04:52:43;;;;;;;22.92;13.32;;;2.00;99.90;;;;;;6119302;23;20413;-82
2023/11/22 04:55:30;;;;;;;24.17;15.05;;;2.00;99.90;;;;;;6118615;23;20026;-82
2023/11/22 04:58:17;;;;;;;24.35;14.88;;;2.00;99.90;;;;;;6119094;23;20034;-81
2023/11/22 05:01:05;;;;;;;24.17;14.82;;;2.00;99.90;;;;;;6119886;23;20026;-81
2023/11/22 05:03:55;;;;;;;22.40;14.00;;;2.00;99.90;;;;;;6120770;23;20049;-82
2023/11/22 05:06:45;;;;;;;30.70;14.02;;;2.00;99.90;;;;;;6119339;23;20533;-81
2023/11/22 05:09:35;;;;;;;24.15;14.27;;;2.00;99.90;;;;;;6118505;23;20056;-80
2023/11/22 05:12:22;;;;;;;23.77;13.55;;;2.00;99.90;;;;;;6119745;23;20026;-79
2023/11/22 05:15:14;;;;;;;24.48;14.65;;;2.00;99.90;;;;;;6121078;23;20030;-82
2023/11/22 05:18:01;;;;;;;25.38;14.18;;;2.00;99.90;;;;;;6098773;23;20022;-82
2023/11/22 05:20:49;;;;;;;28.65;15.88;;;2.10;99.90;;;;;;6118736;23;20034;-82
2023/11/22 05:23:38;;;;;;;28.33;15.90;;;2.00;99.90;;;;;;6097184;23;20091;-80
2023/11/22 05:26:29;;;;;;;31.02;16.17;;;2.10;99.90;;;;;;6118299;23;20415;-82
2023/11/22 05:29:19;;;;;;;23.23;14.63;;;2.00;99.90;;;;;;6118757;23;20037;-83
2023/11/22 05:32:09;;;;;;;25.98;15.07;;;2.10;99.90;;;;;;6098189;23;20052;-81
2023/11/22 05:34:56;;;;;;;25.92;14.88;;;2.00;99.90;;;;;;6117017;23;20033;-81
2023/11/22 05:37:43;;;;;;;24.30;13.93;;;2.00;99.90;;;;;;6117912;23;20281;-81
2023/11/22 05:40:33;;;;;;;25.45;14.43;;;2.10;99.90;;;;;;6097704;23;20033;-81
2023/11/22 05:43:25;;;;;;;20.95;13.43;;;2.10;99.90;;;;;;6118939;23;20419;-83
2023/11/22 05:46:12;;;;;;;22.73;14.27;;;2.00;99.90;;;;;;6118513;23;20290;-83
2023/11/22 05:49:00;;;;;;;21.63;13.23;;;2.00;99.90;;;;;;6098711;23;20053;-82
2023/11/22 05:51:50;;;;;;;22.70;12.75;;;2.00;99.90;;;;;;6121731;23;20037;-81
2023/11/22 05:54:37;;;;;;;24.10;12.80;;;2.00;99.90;;;;;;6120972;23;20029;-82
2023/11/22 05:57:24;;;;;;;21.23;12.50;;;1.90;99.90;;;;;;6099496;23;20030;-83
2023/11/22 06:00:14;;;;;;;22.15;12.75;;;1.90;99.90;;;;;;6117975;23;20030;-83
2023/11/22 06:03:01;;;;;;;16.77;11.82;;;1.90;99.90;;;;;;6120151;23;20432;-84
2023/11/22 06:05:48;;;;;;;20.70;13.05;;;1.90;99.90;;;;;;6121165;23;20423;-83
2023/11/22 06:08:37;;;;;;;23.30;13.38;;;1.90;99.90;;;;;;6120277;23;20451;-83
2023/11/22 06:11:25;;;;;;;23.02;13.98;;;1.90;99.90;;;;;;6119128;23;20025;-83
2023/11/22 06:14:12;;;;;;;18.45;12.45;;;1.90;99.90;;;;;;6118978;23;20026;-83
2023/11/22 06:17:00;;;;;;;18.85;11.88;;;1.90;99.90;;;;;;6120655;23;20041;-83
2023/11/22 06:19:47;;;;;;;19.85;12.07;;;1.90;99.90;;;;;;6099271;23;20037;-83
2023/11/22 06:22:40;;;;;;;24.67;13.25;;;1.90;99.90;;;;;;6119201;23;20093;-83
2023/11/22 06:25:28;;;;;;;22.13;13.30;;;1.90;99.90;;;;;;6118993;23;20471;-83
2023/11/22 06:28:15;;;;;;;18.00;12.10;;;1.80;99.90;;;;;;6120247;23;20454;-80
2023/11/22 06:31:03;;;;;;;22.15;13.55;;;1.90;99.90;;;;;;6119381;23;20022;-84
2023/11/22 06:33:52;;;;;;;20.48;12.82;;;1.90;99.90;;;;;;6120397;23;20500;-83
2023/11/22 06:36:41;;;;;;;24.05;13.77;;;1.80;99.90;;;;;;6118260;23;20448;-82
2023/11/22 06:39:29;;;;;;;20.88;13.27;;;1.80;99.90;;;;;;6120830;23;20057;-82
2023/11/22 06:42:16;;;;;;;19.45;12.75;;;1.80;99.90;;;;;;6122675;23;20130;-84
2023/11/22 06:45:09;;;;;;;20.48;11.98;;;1.80;99.90;;;;;;6120122;23;20115;-83
2023/11/22 06:47:57;;;;;;;22.98;13.13;;;1.80;99.90;;;;;;6119450;23;20100;-83
2023/11/22 06:50:47;;;;;;;20.63;12.75;;;1.70;99.90;;;;;;6118102;23;20032;-83
2023/11/22 06:53:35;;;;;;;17.88;12.57;;;1.70;99.90;;;;;;6097683;23;20034;-82
2023/11/22 06:56:22;;;;;;;18.52;11.73;;;1.70;99.90;;;;;;6119609;23;20037;-83
2023/11/22 06:59:10;;;;;;;19.13;11.00;;;1.70;99.90;;;;;;6095766;23;20046;-83
2023/11/22 07:01:57;;;;;;;15.30;11.30;;;1.70;99.90;;;;;;6119792;23;20065;-82
2023/11/22 07:04:46;;;;;;;18.63;10.70;;;1.70;99.90;;;;;;6120576;23;20032;-83
2023/11/22 07:07:37;;;;;;;19.45;11.73;;;1.70;99.90;;;;;;6120936;23;20021;-82
2023/11/22 07:10:25;;;;;;;17.50;11.25;;;1.70;99.90;;;;;;6119541;23;20022;-82
2023/11/22 07:13:15;;;;;;;21.33;11.77;;;1.60;99.90;;;;;;6118853;23;20045;-83
2023/11/22 07:16:04;;;;;;;18.05;10.85;;;1.60;99.90;;;;;;6119572;23;20140;-82
2023/11/22 07:18:51;;;;;;;17.55;11.02;;;1.60;99.90;;;;;;6120048;23;20331;-81
2023/11/22 07:21:39;;;;;;;18.38;11.30;;;1.60;99.90;;;;;;6100781;23;20033;-82
2023/11/22 07:24:27;;;;;;;21.27;11.57;;;1.60;99.90;;;;;;6101481;23;20421;-83
2023/11/22 07:27:17;;;;;;;18.77;12.68;;;1.60;99.90;;;;;;6096203;23;20026;-80
2023/11/22 07:30:05;;;;;;;21.45;12.52;;;1.60;99.90;;;;;;6122032;23;20033;-84
2023/11/22 07:32:54;;;;;;;18.63;12.07;;;1.60;99.90;;;;;;6120317;23;20037;-82
2023/11/22 07:35:42;;;;;;;17.98;11.90;;;1.60;99.90;;;;;;6120907;23;20030;-83
2023/11/22 07:38:31;;;;;;;18.88;11.82;;;1.60;99.90;;;;;;6119840;23;20105;-83
2023/11/22 07:41:21;;;;;;;18.23;11.65;;;1.60;99.90;;;;;;6119850;23;20042;-83
2023/11/22 07:44:10;;;;;;;21.35;11.30;;;1.60;99.90;;;;;;6120345;23;20373;-82
2023/11/22 07:47:00;;;;;;;16.63;10.98;;;1.60;99.90;;;;;;6119150;23;20321;-83
2023/11/22 07:49:48;;;;;;;20.35;11.48;;;1.70;99.90;;;;;;6120843;23;20427;-82
2023/11/22 07:52:37;;;;;;;17.98;11.02;;;1.70;99.90;;;;;;6122702;22;20061;-83
2023/11/22 07:55:25;;;;;;;17.67;11.57;;;1.70;99.90;;;;;;6103838;23;20514;-82
2023/11/22 07:58:12;;;;;;;16.52;11.50;;;1.70;99.90;;;;;;6100447;23;20412;-82
2023/11/22 08:01:00;;;;;;;15.68;10.65;;;1.70;99.90;;;;;;6121541;23;20489;-83
2023/11/22 08:03:47;;;;;;;21.20;10.57;;;1.70;99.90;;;;;;6123382;23;20033;-83
2023/11/22 08:06:35;;;;;;;13.95;9.65;;;1.70;99.90;;;;;;6129877;23;20046;-79
2023/11/22 08:09:25;;;;;;;14.27;9.95;;;1.70;99.90;;;;;;6131254;23;20030;-83
2023/11/22 08:12:13;;;;;;;11.90;8.32;;;1.70;99.90;;;;;;6130870;23;20026;-83
2023/11/22 08:15:05;;;;;;;12.13;8.73;;;1.60;99.90;;;;;;6135050;23;20033;-83
2023/11/22 08:17:52;;;;;;;12.60;8.80;;;1.60;99.90;;;;;;6135586;23;20026;-82
2023/11/22 08:20:40;;;;;;;15.20;8.65;;;1.50;99.90;;;;;;6111765;23;20479;-82
2023/11/22 08:23:28;;;;;;;13.20;8.75;;;1.50;99.90;;;;;;6127579;23;20087;-82
2023/11/22 08:26:18;;;;;;;12.25;7.90;;;1.50;99.90;;;;;;6120074;23;20104;-83
2023/11/22 08:29:07;;;;;;;11.98;7.72;;;1.50;99.90;;;;;;6100525;23;20037;-83
2023/11/22 08:31:58;;;;;;;11.98;7.78;;;1.50;99.90;;;;;;6121685;22;20049;-82
2023/11/22 08:34:45;;;;;;;11.32;7.68;;;1.50;99.90;;;;;;6119878;23;20030;-83
2023/11/22 08:37:35;;;;;;;16.50;7.68;;;1.40;99.90;;;;;;6121011;23;20022;-82
2023/11/22 08:40:22;;;;;;;11.98;7.70;;;1.40;99.90;;;;;;6119009;23;20030;-82
2023/11/22 08:43:10;;;;;;;10.43;6.63;;;1.30;99.90;;;;;;6125899;23;20230;-80
2023/11/22 08:46:04;;;;;;;14.48;7.40;;;1.30;99.90;;;;;;6125972;23;20021;-83
2023/11/22 08:49:02;;;;;;;12.00;6.80;;;1.40;99.90;;;;;;6125219;23;20037;-83
2023/11/22 08:51:49;;;;;;;10.23;6.95;;;1.30;99.90;;;;;;6124160;23;20060;-82
2023/11/22 08:54:37;;;;;;;14.02;6.80;;;1.30;99.90;;;;;;6126842;23;20323;-81
2023/11/22 08:57:25;;;;;;;9.50;6.10;;;1.40;99.90;;;;;;6124349;23;20348;-84
2023/11/22 09:00:14;;;;;;;10.75;6.88;;;1.40;99.90;;;;;;6123305;23;20026;-83
2023/11/22 09:03:03;;;;;;;12.38;7.68;;;1.40;99.90;;;;;;6119867;23;20021;-82
2023/11/22 09:05:55;;;;;;;8.55;6.68;;;1.50;99.90;;;;;;6118685;23;20050;-83
2023/11/22 09:08:43;;;;;;;13.48;7.32;;;1.60;99.90;;;;;;6099192;23;20389;-83
2023/11/22 09:11:31;;;;;;;9.68;6.13;;;1.60;99.90;;;;;;6097251;23;20029;-83
2023/11/22 09:14:20;;;;;;;9.93;6.40;;;1.60;99.90;;;;;;6119104;23;20026;-84
2023/11/22 09:17:13;;;;;;;12.10;7.70;;;1.70;99.90;;;;;;6120634;23;20026;-84
2023/11/22 09:20:03;;;;;;;8.82;6.50;;;1.80;99.90;;;;;;6118441;23;20054;-82
2023/11/22 09:22:53;;;;;;;12.70;6.70;;;1.80;99.90;;;;;;6118790;23;20037;-83
2023/11/22 09:25:40;;;;;;;11.05;6.13;;;1.80;99.90;;;;;;6099030;23;20029;-84
2023/11/22 09:28:28;;;;;;;10.05;6.53;;;1.80;99.90;;;;;;6118853;23;20033;-82
2023/11/22 09:31:20;;;;;;;10.13;7.03;;;1.80;99.90;;;;;;6118133;23;20135;-82
2023/11/22 09:34:08;;;;;;;11.73;7.43;;;1.80;99.90;;;;;;6120343;23;20030;-81
2023/11/22 09:36:56;;;;;;;14.93;7.65;;;1.70;99.90;;;;;;6123992;23;20026;-82
2023/11/22 09:39:44;;;;;;;15.88;7.20;;;1.70;99.90;;;;;;6099876;23;20022;-82
2023/11/22 09:42:32;;;;;;;11.57;7.40;;;1.70;99.90;;;;;;6120105;23;20057;-83
2023/11/22 09:45:22;;;;;;;11.57;7.22;;;1.70;99.90;;;;;;6121461;23;20037;-80
2023/11/22 09:48:17;;;;;;;13.50;7.00;;;1.70;99.90;;;;;;6102081;23;20103;-83
2023/11/22 09:51:07;;;;;;;12.95;7.72;;;1.70;99.90;;;;;;6122708;23;20022;-83
2023/11/22 09:54:04;;;;;;;14.63;7.72;;;1.70;99.90;;;;;;6120648;23;20026;-83
2023/11/22 09:56:52;;;;;;;10.48;7.18;;;1.80;99.90;;;;;;6120056;23;20075;-82
2023/11/22 09:59:41;;;;;;;20.23;8.40;;;1.90;99.90;;;;;;6101288;23;20029;-82
2023/11/22 10:02:30;;;;;;;13.80;7.78;;;1.90;99.90;;;;;;6120592;23;20022;-83
2023/11/22 10:05:20;;;;;;;11.30;7.40;;;1.90;99.90;;;;;;6121704;23;20037;-82
2023/11/22 10:08:10;;;;;;;16.55;7.80;;;1.90;99.90;;;;;;6101697;23;20037;-82
2023/11/22 10:10:59;;;;;;;11.15;7.65;;;1.90;99.90;;;;;;6121067;23;20432;-82
2023/11/22 10:13:51;;;;;;;16.13;8.48;;;1.90;99.90;;;;;;6100073;23;20104;-83
2023/11/22 10:16:38;;;;;;;14.82;8.98;;;1.80;99.90;;;;;;6122451;23;20030;-82
2023/11/22 10:19:26;;;;;;;15.25;8.52;;;1.80;99.90;;;;;;6121572;23;20271;-82
2023/11/22 10:22:17;;;;;;;11.98;8.15;;;1.80;99.90;;;;;;6120231;23;20037;-82
2023/11/22 10:25:07;;;;;;;14.90;8.57;;;1.80;99.90;;;;;;6121267;23;20026;-79
2023/11/22 10:27:55;;;;;;;14.48;8.60;;;1.80;99.90;;;;;;6122721;23;20083;-80
2023/11/22 10:30:43;;;;;;;13.73;7.88;;;1.80;99.90;;;;;;6122835;23;20036;-82
2023/11/22 10:33:33;;;;;;;16.75;10.02;;;1.70;99.90;;;;;;6119559;23;20040;-82
2023/11/22 10:36:22;;;;;;;17.00;8.55;;;1.70;99.90;;;;;;6122004;23;20040;-78
2023/11/22 10:39:15;;;;;;;13.82;8.75;;;1.70;99.90;;;;;;6103253;23;20545;-82
2023/11/22 10:42:06;;;;;;;11.95;8.23;;;1.70;99.90;;;;;;6122300;23;20030;-82
2023/11/22 10:44:58;;;;;;;15.57;8.93;;;1.80;99.90;;;;;;6120829;23;20369;-81
2023/11/22 10:47:46;;;;;;;12.02;8.43;;;1.80;99.90;;;;;;6098669;23;20026;-82
2023/11/22 10:50:33;;;;;;;15.55;9.45;;;1.90;99.90;;;;;;6120878;23;20088;-82
2023/11/22 10:53:25;;;;;;;13.32;9.38;;;1.80;99.90;;;;;;6121914;23;20038;-83
2023/11/22 10:56:21;;;;;;;16.38;9.43;;;2.00;99.90;;;;;;6121909;23;20049;-82
2023/11/22 10:59:16;;;;;;;14.93;9.43;;;1.90;99.90;;;;;;6120515;23;20122;-81
2023/11/22 11:02:04;;;;;;;14.35;8.65;;;2.00;99.90;;;;;;6121856;23;20058;-82
2023/11/22 11:05:07;;;;;;;15.32;9.60;;;2.00;99.90;;;;;;6120150;23;20022;-82
2023/11/22 11:08:10;;;;;;;11.98;8.10;;;2.10;99.90;;;;;;6120722;23;20033;-82
2023/11/22 11:11:03;;;;;;;13.57;9.57;;;2.20;99.90;;;;;;6120748;23;20026;-83
2023/11/22 11:13:52;;;;;;;15.02;8.68;;;2.10;99.90;;;;;;6120419;23;20034;-81
2023/11/22 11:45:06;;;;;;;13.38;8.82;;;2.60;99.90;;;;;;6116320;23;20408;-82
2023/11/22 11:47:57;;;;;;;14.60;8.90;;;2.60;99.90;;;;;;6114761;23;20026;-80
2023/11/22 11:50:46;;;;;;;15.40;8.00;;;2.70;99.90;;;;;;6117789;23;20057;-82
2023/11/22 11:53:34;;;;;;;13.60;8.57;;;2.70;1.00;;;;;;6097213;23;20105;-83
2023/11/22 11:56:26;;;;;;;15.90;8.30;;;2.60;99.90;;;;;;6120291;23;20030;-82
2023/11/22 11:59:17;;;;;;;10.35;7.03;;;2.60;99.90;;;;;;6118347;23;20066;-82
2023/11/22 12:02:06;;;;;;;14.95;8.35;;;2.50;99.90;;;;;;6119301;23;20421;-83
2023/11/22 12:04:56;;;;;;;15.85;9.68;;;2.60;99.90;;;;;;6120808;23;20022;-83
2023/11/22 12:07:43;;;;;;;12.23;9.18;;;2.50;99.90;;;;;;6100961;23;20080;-82
2023/11/22 12:10:33;;;;;;;13.57;8.95;;;2.50;99.90;;;;;;6100578;23;20096;-83
2023/11/22 12:13:21;;;;;;;15.23;9.07;;;2.40;99.90;;;;;;6121186;23;20030;-83
2023/11/22 12:16:10;;;;;;;14.07;9.32;;;2.40;99.90;;;;;;6120840;23;20029;-82
2023/11/22 12:19:02;;;;;;;17.95;9.60;;;2.40;99.90;;;;;;6118047;23;20493;-82
2023/11/22 12:21:51;;;;;;;14.23;8.95;;;2.40;95.90;;;;;;6120696;23;20589;-82
2023/11/22 12:24:38;;;;;;;13.52;9.40;;;2.30;99.90;;;;;;6118482;23;20026;-81
2023/11/22 12:27:28;;;;;;;17.80;9.93;;;2.30;1.00;;;;;;6122084;23;20033;-83
2023/11/22 12:30:35;;;;;;;14.98;9.35;;;2.30;93.70;;;;;;6124431;23;20022;-83
2023/11/22 12:33:24;;;;;;;16.80;10.05;;;2.30;99.90;;;;;;6134952;23;20030;-83
2023/11/22 12:36:16;;;;;;;15.77;9.02;;;2.30;1.00;;;;;;6114328;23;20033;-83
2023/11/22 12:39:09;;;;;;;16.85;9.98;;;2.30;99.90;;;;;;6132120;23;20123;-83
2023/11/22 12:42:03;;;;;;;12.95;8.73;;;2.30;1.00;;;;;;6131562;23;20026;-82
2023/11/22 12:44:58;;;;;;;12.60;8.65;;;2.30;1.00;;;;;;6137333;23;20053;-83
2023/11/22 12:47:48;;;;;;;14.63;9.23;;;2.30;99.90;;;;;;6116677;23;20026;-83
2023/11/22 12:50:41;;;;;;;14.55;9.38;;;2.30;99.90;;;;;;6136798;22;20033;-80
2023/11/22 12:53:30;;;;;;;12.88;8.90;;;2.30;99.90;;;;;;6143057;22;20022;-82
2023/11/22 12:56:17;;;;;;;13.82;8.88;;;2.30;1.00;;;;;;6111246;23;20050;-83
2023/11/22 12:59:07;;;;;;;12.38;8.65;;;2.30;1.00;;;;;;6108988;23;20022;-83
2023/11/22 13:01:56;;;;;;;14.02;8.70;;;2.30;99.90;;;;;;6126171;23;20045;-84
2023/11/22 13:04:45;;;;;;;15.02;8.70;;;2.30;99.90;;;;;;6124984;23;20480;-84
2023/11/22 13:07:36;;;;;;;11.52;7.68;;;2.30;99.90;;;;;;6125857;23;20128;-83
2023/11/22 13:10:26;;;;;;;14.98;9.35;;;2.30;99.90;;;;;;6129279;23;20026;-84
2023/11/22 13:13:14;;;;;;;15.38;9.05;;;2.30;99.90;;;;;;6111365;23;20060;-80
2023/11/22 13:16:01;;;;;;;11.85;8.25;;;2.30;99.90;;;;;;6130339;23;20034;-83
2023/11/22 13:18:49;;;;;;;13.30;8.43;;;2.30;99.90;;;;;;6126448;23;20030;-85
2023/11/22 13:21:36;;;;;;;13.15;8.82;;;2.30;99.90;;;;;;6101105;23;20040;-80
2023/11/22 13:24:24;;;;;;;15.13;8.65;;;2.30;99.70;;;;;;6124040;23;20022;-82
2023/11/22 13:27:13;;;;;;;17.40;9.07;;;2.30;75.70;;;;;;6123822;23;20022;-81
2023/11/22 13:30:01;;;;;;;12.65;8.50;;;2.30;1.00;;;;;;6122512;23;20026;-83
2023/11/22 13:32:57;;;;;;;13.30;8.57;;;2.30;1.00;;;;;;6099642;23;20036;-83
2023/11/22 13:35:48;;;;;;;17.70;9.13;;;2.30;1.00;;;;;;6120726;23;20026;-82
2023/11/22 13:38:39;;;;;;;12.88;8.60;;;2.20;1.00;;;;;;6121803;23;20022;-86
2023/11/22 13:41:26;;;;;;;12.90;8.73;;;2.20;1.00;;;;;;6103440;23;20065;-84
2023/11/22 13:44:22;;;;;;;17.23;8.38;;;2.10;1.00;;;;;;6122979;23;20022;-83
2023/11/22 13:47:18;;;;;;;14.10;8.93;;;2.10;99.90;;;;;;6104488;23;20447;-82
2023/11/22 13:50:09;;;;;;;14.13;8.52;;;2.10;1.00;;;;;;6123225;23;20030;-82
2023/11/22 13:52:59;;;;;;;13.88;9.55;;;2.00;1.00;;;;;;6124257;23;20044;-84
2023/11/22 13:55:46;;;;;;;12.60;8.50;;;2.00;1.00;;;;;;6102002;23;20026;-83
2023/11/22 13:58:38;;;;;;;14.45;8.82;;;1.90;1.00;;;;;;6102030;23;20029;-83
2023/11/22 14:01:26;;;;;;;15.88;9.60;;;2.00;1.00;;;;;;6125674;23;20026;-83
2023/11/22 14:04:14;;;;;;;14.85;9.00;;;2.00;1.00;;;;;;6102767;23;20069;-83
2023/11/22 14:07:04;;;;;;;13.02;8.68;;;2.00;1.00;;;;;;6123611;23;20025;-84
2023/11/22 14:09:51;;;;;;;14.55;8.45;;;2.00;1.00;;;;;;6120848;23;20369;-83
2023/11/22 14:12:40;;;;;;;13.95;8.80;;;2.00;1.00;;;;;;6099834;23;20028;-84
2023/11/22 14:15:31;;;;;;;14.48;8.40;;;2.00;1.00;;;;;;6119600;23;20126;-82
2023/11/22 14:18:19;;;;;;;12.30;7.80;;;1.90;99.90;;;;;;6100782;23;20050;-82
2023/11/22 14:21:10;;;;;;;21.50;8.65;;;1.90;1.00;;;;;;6121275;23;20026;-83
2023/11/22 14:23:57;;;;;;;13.05;7.95;;;2.00;99.90;;;;;;6120859;23;20022;-84
2023/11/22 14:26:49;;;;;;;13.20;7.68;;;1.90;99.90;;;;;;6122556;23;20026;-84
2023/11/22 14:29:40;;;;;;;14.52;8.57;;;1.90;99.90;;;;;;6122818;23;20025;-83
2023/11/22 14:32:29;;;;;;;13.73;8.32;;;1.80;99.90;;;;;;6103837;23;20427;-83
2023/11/22 14:35:17;;;;;;;13.27;8.75;;;1.80;99.90;;;;;;6121983;23;20029;-84
2023/11/22 14:38:05;;;;;;;11.82;8.02;;;1.80;83.00;;;;;;6122185;23;20026;-83
2023/11/22 14:50:06;;;;;;;13.63;9.05;;;1.70;1.00;;;;;;6118291;23;20092;-83
2023/11/22 15:20:57;;;;;;;12.73;8.55;;;1.30;99.90;;;;;;6181176;23;20212;-84
2023/11/22 15:23:45;;;;;;;13.55;8.65;;;1.20;99.90;;;;;;6144679;23;20048;-83
2023/11/22 15:26:41;;;;;;;12.77;8.88;;;1.20;99.90;;;;;;6122046;23;20037;-83
2023/11/22 15:29:29;;;;;;;12.75;8.35;;;1.20;99.90;;;;;;6120662;23;20499;-82
2023/11/22 15:32:17;;;;;;;11.65;7.60;;;1.20;99.90;;;;;;6121931;23;20119;-83
2023/11/22 15:35:05;;;;;;;13.57;7.72;;;1.20;99.90;;;;;;6120133;23;20434;-83
2023/11/22 15:37:53;;;;;;;14.25;9.25;;;1.20;1.00;;;;;;6120162;23;20036;-83
2023/11/22 15:40:40;;;;;;;11.77;8.73;;;1.20;99.90;;;;;;6121388;23;20029;-81